Cash, South Dakota
Current Conditions -  °F | °C
As of 6:53 PM on Tuesday 21 Oct 2014 (Local Time) from KHEI Reporting Station
Clear Clear  
Wind Chill: 65°   Ceiling: Unl
Heat Index: 65°   Visibility: 10mi
Dew Point: 43°   Wind: 9mph
Humidity: 45%   Direction: 150°SSE
Pressure: 29.66"   Gusts: NA
Location:  45.5161°N, 102.519°W
Report Text: KHEI 220053Z AUTO 15008KT 10SM CLR 18/06 A2966 RMK AO2 SLP045 T01830061
Loading
Personal Weather Stations






























Interactive Weather Map
Tropical Storm Tracking
New forecast layout! Learn more

10-Day Weather Forecast

Advertisements
Track Severe Weather on mobile